D/T METAR WX W/DIR W/SPE G/SPE TEMP DEWP
8/12/19 00:20 EGJJ 080020Z AUTO 20015KT 9999 NCD 10/09 Q1011 SSW (200°) 17.3mph 10°C 9°C
7/12/19 23:50 EGJJ 072350Z AUTO 21015KT 9999 FEW018/// 10/08 Q1012 SSW (210°) 17.3mph 10°C 8°C
7/12/19 23:20 EGJJ 072320Z AUTO 21012KT 9999 SCT013/// 10/08 Q1012 SSW (210°) 13.8mph 10°C 8°C
7/12/19 22:20 EGJJ 072220Z AUTO 22015KT 9999 SCT015/// OVC017/// 10/09 Q1014 SW (220°) 17.3mph 10°C 9°C
7/12/19 21:50 EGJJ 072150Z AUTO 21011KT 9999 FEW019/// 10/09 Q1014 SSW (210°) 12.7mph 10°C 9°C
7/12/19 21:20 EGJJ 072120Z AUTO 22014KT 9999 FEW010/// SCT016/// BKN018/// 10/09 Q1014 SW (220°) 16.1mph 10°C 9°C
7/12/19 20:20 EGJJ 072020Z 22014KT 9999 BKN020 11/09 Q1015 SW (220°) 16.1mph 11°C 9°C
7/12/19 19:50 EGJJ 071950Z 22015KT 9999 BKN026 11/09 Q1015 SW (220°) 17.3mph 11°C 9°C
7/12/19 19:20 EGJJ 071920Z 22013KT 9999 FEW013 BKN025 11/09 Q1015 SW (220°) 15.0mph 11°C 9°C
7/12/19 18:50 EGJJ 071850Z 21013KT 9999 FEW012 BKN026 11/09 Q1016 SSW (210°) 15.0mph 11°C 9°C
7/12/19 18:20 EGJJ 071820Z 21009KT 9999 FEW011 BKN027 11/09 Q1016 SSW (210°) 10.4mph 11°C 9°C
7/12/19 17:50 EGJJ 071750Z 22010KT 9999 FEW025 BKN027 11/09 Q1016 SW (220°) 11.5mph 11°C 9°C
7/12/19 16:50 EGJJ 071650Z 22009KT 9999 FEW013 SCT026 10/08 Q1016 SW (220°) 10.4mph 10°C 8°C
7/12/19 16:20 EGJJ 071620Z 22010KT 9999 FEW013 BKN027 11/09 Q1016 SW (220°) 11.5mph 11°C 9°C
7/12/19 15:50 EGJJ 071550Z 22011KT 9999 FEW012 BKN027 11/09 Q1016 SW (220°) 12.7mph 11°C 9°C
7/12/19 15:20 EGJJ 071520Z 23010KT 9999 FEW012 BKN027 11/09 Q1017 SW (230°) 11.5mph 11°C 9°C
7/12/19 14:50 EGJJ 071450Z 23010KT 9999 FEW012 BKN026 11/09 Q1016 SW (230°) 11.5mph 11°C 9°C
7/12/19 14:20 EGJJ 071420Z 23012KT 9999 VCSH FEW015 BKN025 11/09 Q1016 VCSH SW (230°) 13.8mph 11°C 9°C
7/12/19 13:50 EGJJ 071350Z 23012KT 9999 VCSH SCT012 BKN028 11/09 Q1017 VCSH SW (230°) 13.8mph 11°C 9°C
7/12/19 13:20 EGJJ 071320Z 23013KT 9999 VCSH SCT009 BKN025 11/09 Q1017 VCSH SW (230°) 15.0mph 11°C 9°C
7/12/19 12:50 EGJJ 071250Z 23011KT 9999 VCSH FEW008 SCT012 BKN026 11/09 Q1017 VCSH SW (230°) 12.7mph 11°C 9°C
7/12/19 12:20 EGJJ 071220Z 24013KT 9999 VCSH FEW008 BKN026 12/09 Q1017 VCSH WSW (240°) 15.0mph 12°C 9°C
7/12/19 11:50 EGJJ 071150Z 24011KT 9999 FEW017 SCT032 11/09 Q1017 WSW (240°) 12.7mph 11°C 9°C
7/12/19 11:20 EGJJ 071120Z 26008KT 9999 FEW017 BKN032 11/09 Q1017 W (260°) 9.2mph 11°C 9°C
7/12/19 09:50 EGJJ 070950Z 27007KT 9999 FEW014 BKN034 11/09 Q1017 W (270°) 8.1mph 11°C 9°C
7/12/19 08:50 EGJJ 070850Z 27005KT 9999 VCSH FEW014 BKN034 11/09 Q1017 VCSH W (270°) 5.8mph 11°C 9°C
7/12/19 08:20 EGJJ 070820Z 26008KT 9999 FEW020 BKN034 11/09 Q1017 W (260°) 9.2mph 11°C 9°C
7/12/19 07:50 EGJJ 070750Z 25009KT 9999 FEW020 BKN035 10/08 Q1017 WSW (250°) 10.4mph 10°C 8°C
7/12/19 07:20 EGJJ 070720Z 26009KT 9999 FEW020 BKN035 11/09 Q1017 W (260°) 10.4mph 11°C 9°C
7/12/19 06:50 EGJJ 070650Z 28007KT 9999 FEW020 BKN040 10/09 Q1016 W (280°) 8.1mph 10°C 9°C
7/12/19 06:20 EGJJ 070620Z 29005KT 9999 FEW020 BKN035 10/09 Q1016 WNW (290°) 5.8mph 10°C 9°C
7/12/19 05:20 EGJJ 070520Z AUTO 27007KT 9999 SCT031/// OVC038/// 10/09 Q1016 W (270°) 8.1mph 10°C 9°C
7/12/19 04:50 EGJJ 070450Z AUTO 27009KT 9999 SCT034/// BKN040/// 10/08 Q1016 W (270°) 10.4mph 10°C 8°C
7/12/19 04:20 EGJJ 070420Z AUTO 28011KT 9999 FEW015/// OVC035/// 10/09 Q1015 W (280°) 12.7mph 10°C 9°C
7/12/19 03:50 EGJJ 070350Z AUTO 28011KT 9999 FEW017/// SCT020/// OVC033/// 10/09 Q1015 W (280°) 12.7mph 10°C 9°C
7/12/19 03:20 EGJJ 070320Z AUTO 27012KT 9999 FEW017/// SCT019/// BKN038/// 10/09 Q1015 W (270°) 13.8mph 10°C 9°C
7/12/19 02:50 EGJJ 070250Z AUTO 28010KT 9999 BKN016/// BKN018/// BKN026/// 11/09 Q1015 W (280°) 11.5mph 11°C 9°C
7/12/19 02:20 EGJJ 070220Z AUTO 28012KT 9999 SCT015/// SCT017/// 10/09 Q1015 REDZ W (280°) 13.8mph 10°C 9°C
7/12/19 01:50 EGJJ 070150Z AUTO 27010KT 9999 FEW011/// BKN014/// BKN017/// 11/09 Q1014 REDZ W (270°) 11.5mph 11°C 9°C
7/12/19 01:20 EGJJ 070120Z AUTO 29011KT 9999 FEW014/// OVC041/// 10/09 Q1014 WNW (290°) 12.7mph 10°C 9°C
7/12/19 00:50 EGJJ 070050Z AUTO 29014KT 9999 FEW015/// BKN018/// BKN026/// 10/09 Q1014 WNW (290°) 16.1mph 10°C 9°C
7/12/19 00:20 EGJJ 070020Z AUTO 28014KT 9999 FEW016/// SCT021/// BKN036/// 11/09 Q1014 W (280°) 16.1mph 11°C 9°C
6/12/19 23:50 EGJJ 062350Z AUTO 29013KT 9999 FEW015/// BKN039/// 11/10 Q1014 RERA WNW (290°) 15.0mph 11°C 10°C
6/12/19 23:20 EGJJ 062320Z AUTO 28012KT 9999 FEW011/// BKN015/// BKN021/// 11/10 Q1014 RERA W (280°) 13.8mph 11°C 10°C
6/12/19 22:50 EGJJ 062250Z AUTO 28013KT 9999 SCT015/// SCT020/// OVC037/// 11/10 Q1014 W (280°) 15.0mph 11°C 10°C
6/12/19 22:20 EGJJ 062220Z AUTO 28015KT 9999 SCT014/// SCT017/// BKN043/// 11/10 Q1013 W (280°) 17.3mph 11°C 10°C
6/12/19 21:50 EGJJ 062150Z AUTO 28015KT 9999 SCT015/// BKN046/// 11/10 Q1013 RERA W (280°) 17.3mph 11°C 10°C
6/12/19 21:20 EGJJ 062120Z 28015KT 9999 VCSH SCT013 BKN021 10/10 Q1013 VCSH W (280°) 17.3mph 10°C 10°C